sensor_id;sensor_type;location;lat;lon;timestamp;P1;durP1;ratioP1;P2;durP2;ratioP2
54171;SDS011;40076;52.354;4.970;2023-02-10T00:01:12;24.65;;;9.38;;
54171;SDS011;40076;52.354;4.970;2023-02-10T00:03:39;21.88;;;9.60;;
54171;SDS011;40076;52.354;4.970;2023-02-10T00:06:05;26.67;;;10.07;;
54171;SDS011;40076;52.354;4.970;2023-02-10T00:08:35;21.48;;;8.43;;
54171;SDS011;40076;52.354;4.970;2023-02-10T00:11:04;25.02;;;9.13;;
54171;SDS011;40076;52.354;4.970;2023-02-10T00:13:35;21.92;;;9.25;;
54171;SDS011;40076;52.354;4.970;2023-02-10T00:16:05;23.45;;;8.70;;
54171;SDS011;40076;52.354;4.970;2023-02-10T00:18:34;18.48;;;9.05;;
54171;SDS011;40076;52.354;4.970;2023-02-10T00:21:10;18.80;;;9.32;;
54171;SDS011;40076;52.354;4.970;2023-02-10T00:23:38;30.25;;;10.55;;
54171;SDS011;40076;52.354;4.970;2023-02-10T00:26:04;34.28;;;10.27;;
54171;SDS011;40076;52.354;4.970;2023-02-10T00:28:31;20.13;;;9.18;;
54171;SDS011;40076;52.354;4.970;2023-02-10T00:30:57;20.17;;;8.35;;
54171;SDS011;40076;52.354;4.970;2023-02-10T00:33:22;21.05;;;8.25;;
54171;SDS011;40076;52.354;4.970;2023-02-10T00:35:48;18.38;;;7.88;;
54171;SDS011;40076;52.354;4.970;2023-02-10T00:38:13;18.38;;;8.32;;
54171;SDS011;40076;52.354;4.970;2023-02-10T00:40:38;18.60;;;7.30;;
54171;SDS011;40076;52.354;4.970;2023-02-10T00:43:04;18.02;;;7.70;;
54171;SDS011;40076;52.354;4.970;2023-02-10T00:45:29;25.02;;;8.52;;
54171;SDS011;40076;52.354;4.970;2023-02-10T00:47:54;17.65;;;7.72;;
54171;SDS011;40076;52.354;4.970;2023-02-10T00:50:19;20.05;;;8.00;;
54171;SDS011;40076;52.354;4.970;2023-02-10T00:52:45;20.52;;;7.00;;
54171;SDS011;40076;52.354;4.970;2023-02-10T00:55:10;21.67;;;6.13;;
54171;SDS011;40076;52.354;4.970;2023-02-10T00:57:35;18.00;;;6.28;;
54171;SDS011;40076;52.354;4.970;2023-02-10T01:00:04;16.45;;;6.00;;
54171;SDS011;40076;52.354;4.970;2023-02-10T01:02:30;15.65;;;6.70;;
54171;SDS011;40076;52.354;4.970;2023-02-10T01:04:59;19.70;;;7.65;;
54171;SDS011;40076;52.354;4.970;2023-02-10T01:07:24;17.92;;;7.10;;
54171;SDS011;40076;52.354;4.970;2023-02-10T01:09:50;24.23;;;7.45;;
54171;SDS011;40076;52.354;4.970;2023-02-10T01:12:15;22.95;;;7.20;;
54171;SDS011;40076;52.354;4.970;2023-02-10T01:14:40;16.27;;;7.15;;
54171;SDS011;40076;52.354;4.970;2023-02-10T01:17:08;20.75;;;7.63;;
54171;SDS011;40076;52.354;4.970;2023-02-10T01:19:34;17.63;;;7.75;;
54171;SDS011;40076;52.354;4.970;2023-02-10T01:21:59;23.05;;;8.35;;
54171;SDS011;40076;52.354;4.970;2023-02-10T01:24:25;18.42;;;7.28;;
54171;SDS011;40076;52.354;4.970;2023-02-10T01:26:53;14.80;;;6.63;;
54171;SDS011;40076;52.354;4.970;2023-02-10T01:29:18;17.80;;;6.72;;
54171;SDS011;40076;52.354;4.970;2023-02-10T01:31:46;24.25;;;8.13;;
54171;SDS011;40076;52.354;4.970;2023-02-10T01:34:11;20.65;;;7.18;;
54171;SDS011;40076;52.354;4.970;2023-02-10T01:36:40;22.63;;;6.85;;
54171;SDS011;40076;52.354;4.970;2023-02-10T01:39:05;19.77;;;7.00;;
54171;SDS011;40076;52.354;4.970;2023-02-10T01:41:30;23.30;;;7.13;;
54171;SDS011;40076;52.354;4.970;2023-02-10T01:46:46;18.98;;;6.82;;
54171;SDS011;40076;52.354;4.970;2023-02-10T01:49:14;20.13;;;7.47;;
54171;SDS011;40076;52.354;4.970;2023-02-10T01:51:45;14.65;;;6.82;;
54171;SDS011;40076;52.354;4.970;2023-02-10T01:54:16;20.80;;;6.55;;
54171;SDS011;40076;52.354;4.970;2023-02-10T01:56:45;19.35;;;6.60;;
54171;SDS011;40076;52.354;4.970;2023-02-10T01:59:12;17.52;;;5.72;;
54171;SDS011;40076;52.354;4.970;2023-02-10T02:01:39;16.42;;;5.53;;
54171;SDS011;40076;52.354;4.970;2023-02-10T02:04:05;15.65;;;5.90;;
54171;SDS011;40076;52.354;4.970;2023-02-10T02:06:30;14.93;;;5.82;;
54171;SDS011;40076;52.354;4.970;2023-02-10T02:09:02;15.15;;;7.10;;
54171;SDS011;40076;52.354;4.970;2023-02-10T02:16:46;16.38;;;5.75;;
54171;SDS011;40076;52.354;4.970;2023-02-10T02:22:59;14.50;;;6.07;;
54171;SDS011;40076;52.354;4.970;2023-02-10T02:34:04;17.90;;;5.82;;
54171;SDS011;40076;52.354;4.970;2023-02-10T02:36:39;17.02;;;5.72;;
54171;SDS011;40076;52.354;4.970;2023-02-10T02:39:07;15.57;;;5.25;;
54171;SDS011;40076;52.354;4.970;2023-02-10T02:41:33;22.20;;;7.03;;
54171;SDS011;40076;52.354;4.970;2023-02-10T02:43:59;17.35;;;5.88;;
54171;SDS011;40076;52.354;4.970;2023-02-10T02:49:13;13.45;;;5.10;;
54171;SDS011;40076;52.354;4.970;2023-02-10T02:52:04;8.73;;;3.55;;
54171;SDS011;40076;52.354;4.970;2023-02-10T03:02:28;17.08;;;5.80;;
54171;SDS011;40076;52.354;4.970;2023-02-10T03:04:58;13.13;;;5.57;;
54171;SDS011;40076;52.354;4.970;2023-02-10T03:07:23;17.27;;;5.15;;
54171;SDS011;40076;52.354;4.970;2023-02-10T03:09:49;18.83;;;5.00;;
54171;SDS011;40076;52.354;4.970;2023-02-10T03:12:14;22.40;;;6.80;;
54171;SDS011;40076;52.354;4.970;2023-02-10T03:14:40;15.15;;;5.35;;
54171;SDS011;40076;52.354;4.970;2023-02-10T03:17:05;17.65;;;6.03;;
54171;SDS011;40076;52.354;4.970;2023-02-10T03:19:33;12.68;;;5.72;;
54171;SDS011;40076;52.354;4.970;2023-02-10T03:22:04;21.25;;;5.53;;
54171;SDS011;40076;52.354;4.970;2023-02-10T03:24:33;18.95;;;6.72;;
54171;SDS011;40076;52.354;4.970;2023-02-10T03:26:58;17.38;;;5.45;;
54171;SDS011;40076;52.354;4.970;2023-02-10T03:29:24;13.63;;;5.88;;
54171;SDS011;40076;52.354;4.970;2023-02-10T03:31:52;13.45;;;5.47;;
54171;SDS011;40076;52.354;4.970;2023-02-10T03:34:18;18.27;;;6.38;;
54171;SDS011;40076;52.354;4.970;2023-02-10T03:36:43;23.05;;;6.60;;
54171;SDS011;40076;52.354;4.970;2023-02-10T03:39:08;18.05;;;6.65;;
54171;SDS011;40076;52.354;4.970;2023-02-10T03:41:34;14.48;;;6.50;;
54171;SDS011;40076;52.354;4.970;2023-02-10T03:44:02;17.17;;;5.88;;
54171;SDS011;40076;52.354;4.970;2023-02-10T03:46:28;19.63;;;6.38;;
54171;SDS011;40076;52.354;4.970;2023-02-10T03:48:53;19.23;;;5.75;;
54171;SDS011;40076;52.354;4.970;2023-02-10T03:51:18;15.63;;;5.55;;
54171;SDS011;40076;52.354;4.970;2023-02-10T03:53:44;16.88;;;5.68;;
54171;SDS011;40076;52.354;4.970;2023-02-10T03:56:09;16.38;;;5.47;;
54171;SDS011;40076;52.354;4.970;2023-02-10T03:58:35;15.20;;;5.70;;
54171;SDS011;40076;52.354;4.970;2023-02-10T04:01:14;17.58;;;5.70;;
54171;SDS011;40076;52.354;4.970;2023-02-10T04:03:40;17.23;;;5.97;;
54171;SDS011;40076;52.354;4.970;2023-02-10T04:06:09;21.65;;;5.75;;
54171;SDS011;40076;52.354;4.970;2023-02-10T04:08:39;16.38;;;5.03;;
54171;SDS011;40076;52.354;4.970;2023-02-10T04:11:04;17.27;;;6.03;;
54171;SDS011;40076;52.354;4.970;2023-02-10T04:13:32;20.30;;;6.20;;
54171;SDS011;40076;52.354;4.970;2023-02-10T04:16:01;20.23;;;5.68;;
54171;SDS011;40076;52.354;4.970;2023-02-10T04:18:28;31.13;;;7.75;;
54171;SDS011;40076;52.354;4.970;2023-02-10T04:20:53;15.05;;;6.95;;
54171;SDS011;40076;52.354;4.970;2023-02-10T04:23:19;24.00;;;6.50;;
54171;SDS011;40076;52.354;4.970;2023-02-10T04:25:44;12.80;;;6.70;;
54171;SDS011;40076;52.354;4.970;2023-02-10T04:28:09;21.00;;;7.15;;
54171;SDS011;40076;52.354;4.970;2023-02-10T04:30:35;19.80;;;6.93;;
54171;SDS011;40076;52.354;4.970;2023-02-10T04:33:00;17.48;;;6.85;;
54171;SDS011;40076;52.354;4.970;2023-02-10T04:35:26;18.85;;;7.13;;
54171;SDS011;40076;52.354;4.970;2023-02-10T04:37:51;18.00;;;7.55;;
54171;SDS011;40076;52.354;4.970;2023-02-10T04:40:16;24.27;;;8.13;;
54171;SDS011;40076;52.354;4.970;2023-02-10T04:42:42;16.83;;;7.47;;
54171;SDS011;40076;52.354;4.970;2023-02-10T04:45:07;18.05;;;7.85;;
54171;SDS011;40076;52.354;4.970;2023-02-10T04:47:33;22.05;;;7.90;;
54171;SDS011;40076;52.354;4.970;2023-02-10T04:49:58;23.60;;;8.45;;
54171;SDS011;40076;52.354;4.970;2023-02-10T04:52:29;20.95;;;8.38;;
54171;SDS011;40076;52.354;4.970;2023-02-10T04:54:54;25.65;;;8.50;;
54171;SDS011;40076;52.354;4.970;2023-02-10T04:57:20;22.98;;;8.77;;
54171;SDS011;40076;52.354;4.970;2023-02-10T04:59:45;19.23;;;8.80;;
54171;SDS011;40076;52.354;4.970;2023-02-10T05:02:10;23.50;;;9.05;;
54171;SDS011;40076;52.354;4.970;2023-02-10T05:04:39;17.70;;;9.45;;
54171;SDS011;40076;52.354;4.970;2023-02-10T05:07:04;22.50;;;9.45;;
54171;SDS011;40076;52.354;4.970;2023-02-10T05:09:30;23.80;;;9.43;;
54171;SDS011;40076;52.354;4.970;2023-02-10T05:11:55;27.33;;;10.55;;
54171;SDS011;40076;52.354;4.970;2023-02-10T05:14:23;27.58;;;10.32;;
54171;SDS011;40076;52.354;4.970;2023-02-10T05:16:49;24.75;;;10.27;;
54171;SDS011;40076;52.354;4.970;2023-02-10T05:19:15;26.33;;;11.25;;
54171;SDS011;40076;52.354;4.970;2023-02-10T05:21:40;26.67;;;11.40;;
54171;SDS011;40076;52.354;4.970;2023-02-10T05:24:05;27.58;;;11.77;;
54171;SDS011;40076;52.354;4.970;2023-02-10T05:26:33;26.98;;;11.38;;
54171;SDS011;40076;52.354;4.970;2023-02-10T05:28:59;29.48;;;11.27;;
54171;SDS011;40076;52.354;4.970;2023-02-10T05:31:24;30.02;;;11.93;;
54171;SDS011;40076;52.354;4.970;2023-02-10T05:33:49;32.47;;;13.30;;
54171;SDS011;40076;52.354;4.970;2023-02-10T05:36:15;26.75;;;12.10;;
54171;SDS011;40076;52.354;4.970;2023-02-10T05:38:42;25.85;;;11.90;;
54171;SDS011;40076;52.354;4.970;2023-02-10T05:41:28;29.85;;;12.65;;
54171;SDS011;40076;52.354;4.970;2023-02-10T05:43:53;26.00;;;12.70;;
54171;SDS011;40076;52.354;4.970;2023-02-10T05:46:18;35.22;;;15.20;;
54171;SDS011;40076;52.354;4.970;2023-02-10T05:48:44;34.17;;;13.40;;
54171;SDS011;40076;52.354;4.970;2023-02-10T05:51:10;27.80;;;13.45;;
54171;SDS011;40076;52.354;4.970;2023-02-10T05:53:39;29.48;;;14.38;;
54171;SDS011;40076;52.354;4.970;2023-02-10T05:56:12;29.95;;;14.40;;
54171;SDS011;40076;52.354;4.970;2023-02-10T05:58:38;35.47;;;14.77;;
54171;SDS011;40076;52.354;4.970;2023-02-10T06:01:10;29.60;;;16.10;;
54171;SDS011;40076;52.354;4.970;2023-02-10T06:03:39;29.27;;;13.05;;
54171;SDS011;40076;52.354;4.970;2023-02-10T06:06:04;34.90;;;15.60;;
54171;SDS011;40076;52.354;4.970;2023-02-10T06:08:30;33.78;;;16.00;;
54171;SDS011;40076;52.354;4.970;2023-02-10T06:10:55;38.20;;;16.67;;
54171;SDS011;40076;52.354;4.970;2023-02-10T06:13:21;36.28;;;16.45;;
54171;SDS011;40076;52.354;4.970;2023-02-10T06:15:46;38.67;;;17.50;;
54171;SDS011;40076;52.354;4.970;2023-02-10T06:18:12;32.25;;;16.08;;
54171;SDS011;40076;52.354;4.970;2023-02-10T06:20:37;33.70;;;16.27;;
54171;SDS011;40076;52.354;4.970;2023-02-10T06:23:03;34.05;;;17.23;;
54171;SDS011;40076;52.354;4.970;2023-02-10T06:25:28;35.13;;;16.67;;
54171;SDS011;40076;52.354;4.970;2023-02-10T06:27:54;35.45;;;15.93;;
54171;SDS011;40076;52.354;4.970;2023-02-10T06:30:19;36.03;;;15.77;;
54171;SDS011;40076;52.354;4.970;2023-02-10T06:32:45;37.67;;;15.68;;
54171;SDS011;40076;52.354;4.970;2023-02-10T06:35:10;34.85;;;15.48;;
54171;SDS011;40076;52.354;4.970;2023-02-10T06:37:39;35.42;;;14.68;;
54171;SDS011;40076;52.354;4.970;2023-02-10T06:40:05;37.22;;;16.27;;
54171;SDS011;40076;52.354;4.970;2023-02-10T06:42:39;39.67;;;15.75;;
54171;SDS011;40076;52.354;4.970;2023-02-10T06:45:10;37.55;;;16.10;;
54171;SDS011;40076;52.354;4.970;2023-02-10T06:47:35;38.47;;;18.17;;
54171;SDS011;40076;52.354;4.970;2023-02-10T06:50:03;33.05;;;15.75;;
54171;SDS011;40076;52.354;4.970;2023-02-10T06:52:28;34.90;;;16.60;;
54171;SDS011;40076;52.354;4.970;2023-02-10T06:54:55;45.88;;;17.38;;
54171;SDS011;40076;52.354;4.970;2023-02-10T06:57:20;38.67;;;17.85;;
54171;SDS011;40076;52.354;4.970;2023-02-10T06:59:46;36.65;;;17.13;;
54171;SDS011;40076;52.354;4.970;2023-02-10T07:02:11;40.85;;;18.38;;
54171;SDS011;40076;52.354;4.970;2023-02-10T07:04:37;44.67;;;20.05;;
54171;SDS011;40076;52.354;4.970;2023-02-10T07:07:03;42.17;;;19.35;;
54171;SDS011;40076;52.354;4.970;2023-02-10T07:09:29;47.35;;;19.15;;
54171;SDS011;40076;52.354;4.970;2023-02-10T07:11:54;49.88;;;19.77;;
54171;SDS011;40076;52.354;4.970;2023-02-10T07:14:19;45.88;;;21.20;;
54171;SDS011;40076;52.354;4.970;2023-02-10T07:16:45;42.70;;;20.73;;
54171;SDS011;40076;52.354;4.970;2023-02-10T07:19:12;50.40;;;21.10;;
54171;SDS011;40076;52.354;4.970;2023-02-10T07:21:37;48.63;;;22.08;;
54171;SDS011;40076;52.354;4.970;2023-02-10T07:24:03;58.92;;;22.52;;
54171;SDS011;40076;52.354;4.970;2023-02-10T07:26:29;56.58;;;22.10;;
54171;SDS011;40076;52.354;4.970;2023-02-10T07:28:54;55.00;;;24.65;;
54171;SDS011;40076;52.354;4.970;2023-02-10T07:31:19;58.28;;;25.15;;
54171;SDS011;40076;52.354;4.970;2023-02-10T07:33:45;62.63;;;25.75;;
54171;SDS011;40076;52.354;4.970;2023-02-10T07:36:10;54.63;;;24.05;;
54171;SDS011;40076;52.354;4.970;2023-02-10T07:38:35;56.78;;;24.02;;
54171;SDS011;40076;52.354;4.970;2023-02-10T07:41:04;56.45;;;24.50;;
54171;SDS011;40076;52.354;4.970;2023-02-10T07:43:39;54.70;;;24.65;;
54171;SDS011;40076;52.354;4.970;2023-02-10T07:46:04;54.78;;;24.75;;
54171;SDS011;40076;52.354;4.970;2023-02-10T07:48:30;55.65;;;25.08;;
54171;SDS011;40076;52.354;4.970;2023-02-10T07:50:55;53.58;;;25.42;;
54171;SDS011;40076;52.354;4.970;2023-02-10T07:53:21;54.53;;;25.35;;
54171;SDS011;40076;52.354;4.970;2023-02-10T07:55:46;57.35;;;25.55;;
54171;SDS011;40076;52.354;4.970;2023-02-10T07:58:12;63.55;;;26.95;;
54171;SDS011;40076;52.354;4.970;2023-02-10T08:00:38;61.17;;;26.98;;
54171;SDS011;40076;52.354;4.970;2023-02-10T08:03:04;50.33;;;24.45;;
54171;SDS011;40076;52.354;4.970;2023-02-10T08:05:30;53.08;;;26.30;;
54171;SDS011;40076;52.354;4.970;2023-02-10T08:07:59;56.35;;;25.30;;
54171;SDS011;40076;52.354;4.970;2023-02-10T08:10:24;58.78;;;27.02;;
54171;SDS011;40076;52.354;4.970;2023-02-10T08:12:50;63.03;;;26.52;;
54171;SDS011;40076;52.354;4.970;2023-02-10T08:15:15;59.88;;;25.60;;
54171;SDS011;40076;52.354;4.970;2023-02-10T08:17:42;55.42;;;25.95;;
54171;SDS011;40076;52.354;4.970;2023-02-10T08:20:08;53.22;;;24.52;;
54171;SDS011;40076;52.354;4.970;2023-02-10T08:22:34;55.03;;;25.77;;
54171;SDS011;40076;52.354;4.970;2023-02-10T08:25:00;49.42;;;25.65;;
54171;SDS011;40076;52.354;4.970;2023-02-10T08:27:29;52.58;;;25.38;;
54171;SDS011;40076;52.354;4.970;2023-02-10T08:29:55;52.10;;;24.08;;
54171;SDS011;40076;52.354;4.970;2023-02-10T08:32:20;56.58;;;24.75;;
54171;SDS011;40076;52.354;4.970;2023-02-10T08:34:47;52.45;;;23.08;;
54171;SDS011;40076;52.354;4.970;2023-02-10T08:37:13;54.30;;;23.25;;
54171;SDS011;40076;52.354;4.970;2023-02-10T08:39:39;46.28;;;23.42;;
54171;SDS011;40076;52.354;4.970;2023-02-10T08:42:04;44.35;;;23.05;;
54171;SDS011;40076;52.354;4.970;2023-02-10T08:44:30;50.85;;;24.40;;
54171;SDS011;40076;52.354;4.970;2023-02-10T08:46:55;52.38;;;23.63;;
54171;SDS011;40076;52.354;4.970;2023-02-10T08:49:20;51.67;;;23.73;;
54171;SDS011;40076;52.354;4.970;2023-02-10T08:51:49;48.92;;;24.80;;
54171;SDS011;40076;52.354;4.970;2023-02-10T08:54:18;48.92;;;23.30;;
54171;SDS011;40076;52.354;4.970;2023-02-10T08:56:44;50.33;;;23.05;;
54171;SDS011;40076;52.354;4.970;2023-02-10T08:59:10;48.78;;;24.00;;
54171;SDS011;40076;52.354;4.970;2023-02-10T09:01:36;46.45;;;23.23;;
54171;SDS011;40076;52.354;4.970;2023-02-10T09:04:04;49.92;;;24.10;;
54171;SDS011;40076;52.354;4.970;2023-02-10T09:06:34;44.67;;;23.88;;
54171;SDS011;40076;52.354;4.970;2023-02-10T09:09:22;43.53;;;23.83;;
54171;SDS011;40076;52.354;4.970;2023-02-10T09:12:07;39.33;;;22.88;;
54171;SDS011;40076;52.354;4.970;2023-02-10T09:14:39;45.53;;;23.38;;
54171;SDS011;40076;52.354;4.970;2023-02-10T09:17:05;41.58;;;22.50;;
54171;SDS011;40076;52.354;4.970;2023-02-10T09:19:33;41.13;;;21.45;;
54171;SDS011;40076;52.354;4.970;2023-02-10T09:21:59;41.45;;;21.73;;
54171;SDS011;40076;52.354;4.970;2023-02-10T09:24:24;35.70;;;21.73;;
54171;SDS011;40076;52.354;4.970;2023-02-10T09:26:50;35.80;;;19.75;;
54171;SDS011;40076;52.354;4.970;2023-02-10T09:29:15;38.30;;;21.70;;
54171;SDS011;40076;52.354;4.970;2023-02-10T09:31:41;39.08;;;21.65;;
54171;SDS011;40076;52.354;4.970;2023-02-10T09:34:14;38.45;;;20.77;;
54171;SDS011;40076;52.354;4.970;2023-02-10T09:36:40;39.10;;;21.60;;
54171;SDS011;40076;52.354;4.970;2023-02-10T09:39:06;34.17;;;21.67;;
54171;SDS011;40076;52.354;4.970;2023-02-10T09:54:25;35.08;;;20.30;;
54171;SDS011;40076;52.354;4.970;2023-02-10T09:56:56;31.92;;;21.08;;
54171;SDS011;40076;52.354;4.970;2023-02-10T09:59:38;38.35;;;19.17;;
54171;SDS011;40076;52.354;4.970;2023-02-10T10:05:14;36.10;;;20.70;;
54171;SDS011;40076;52.354;4.970;2023-02-10T10:07:45;35.58;;;19.13;;
54171;SDS011;40076;52.354;4.970;2023-02-10T10:10:23;40.58;;;20.52;;
54171;SDS011;40076;52.354;4.970;2023-02-10T10:12:54;34.47;;;20.25;;
54171;SDS011;40076;52.354;4.970;2023-02-10T10:15:19;36.20;;;18.75;;
54171;SDS011;40076;52.354;4.970;2023-02-10T10:17:54;37.30;;;19.05;;
54171;SDS011;40076;52.354;4.970;2023-02-10T10:20:36;32.90;;;19.00;;
54171;SDS011;40076;52.354;4.970;2023-02-10T10:25:59;36.30;;;19.23;;
54171;SDS011;40076;52.354;4.970;2023-02-10T10:31:19;40.60;;;18.27;;
54171;SDS011;40076;52.354;4.970;2023-02-10T10:36:48;32.85;;;17.85;;
54171;SDS011;40076;52.354;4.970;2023-02-10T10:39:34;31.77;;;17.92;;
54171;SDS011;40076;52.354;4.970;2023-02-10T10:42:12;31.58;;;19.08;;
54171;SDS011;40076;52.354;4.970;2023-02-10T10:45:02;28.45;;;17.60;;
54171;SDS011;40076;52.354;4.970;2023-02-10T10:47:45;34.45;;;17.42;;
54171;SDS011;40076;52.354;4.970;2023-02-10T10:50:15;26.67;;;13.52;;
54171;SDS011;40076;52.354;4.970;2023-02-10T10:52:44;41.88;;;17.40;;
54171;SDS011;40076;52.354;4.970;2023-02-10T10:55:35;33.42;;;18.20;;
54171;SDS011;40076;52.354;4.970;2023-02-10T10:58:21;33.47;;;17.13;;
54171;SDS011;40076;52.354;4.970;2023-02-10T11:03:15;25.13;;;14.00;;
54171;SDS011;40076;52.354;4.970;2023-02-10T11:05:40;32.38;;;14.40;;
54171;SDS011;40076;52.354;4.970;2023-02-10T11:08:07;29.95;;;14.18;;
54171;SDS011;40076;52.354;4.970;2023-02-10T11:10:49;29.30;;;14.40;;
54171;SDS011;40076;52.354;4.970;2023-02-10T11:13:22;24.63;;;15.00;;
54171;SDS011;40076;52.354;4.970;2023-02-10T11:15:57;24.05;;;13.65;;
54171;SDS011;40076;52.354;4.970;2023-02-10T11:18:25;31.45;;;14.77;;
54171;SDS011;40076;52.354;4.970;2023-02-10T11:21:01;30.83;;;14.60;;
54171;SDS011;40076;52.354;4.970;2023-02-10T11:23:29;26.30;;;14.35;;
54171;SDS011;40076;52.354;4.970;2023-02-10T11:25:56;27.15;;;13.05;;
54171;SDS011;40076;52.354;4.970;2023-02-10T11:28:28;26.27;;;13.45;;
54171;SDS011;40076;52.354;4.970;2023-02-10T11:31:03;27.38;;;14.98;;
54171;SDS011;40076;52.354;4.970;2023-02-10T11:33:34;29.95;;;15.77;;
54171;SDS011;40076;52.354;4.970;2023-02-10T11:36:09;31.50;;;17.17;;
54171;SDS011;40076;52.354;4.970;2023-02-10T11:38:38;32.15;;;17.80;;
54171;SDS011;40076;52.354;4.970;2023-02-10T11:41:06;37.13;;;15.02;;
54171;SDS011;40076;52.354;4.970;2023-02-10T11:43:40;28.63;;;13.95;;
54171;SDS011;40076;52.354;4.970;2023-02-10T11:46:43;26.52;;;14.00;;
54171;SDS011;40076;52.354;4.970;2023-02-10T11:49:11;42.83;;;14.88;;
54171;SDS011;40076;52.354;4.970;2023-02-10T11:51:50;26.63;;;13.98;;
54171;SDS011;40076;52.354;4.970;2023-02-10T11:54:20;27.25;;;14.15;;
54171;SDS011;40076;52.354;4.970;2023-02-10T12:03:06;23.50;;;12.15;;
54171;SDS011;40076;52.354;4.970;2023-02-10T12:08:14;25.27;;;12.18;;
54171;SDS011;40076;52.354;4.970;2023-02-10T12:16:26;21.25;;;11.75;;
54171;SDS011;40076;52.354;4.970;2023-02-10T12:19:01;27.40;;;12.15;;
54171;SDS011;40076;52.354;4.970;2023-02-10T12:30:27;18.75;;;7.82;;
54171;SDS011;40076;52.354;4.970;2023-02-10T12:32:56;18.50;;;8.60;;
54171;SDS011;40076;52.354;4.970;2023-02-10T12:46:34;22.23;;;8.20;;
54171;SDS011;40076;52.354;4.970;2023-02-10T12:49:05;20.35;;;8.68;;
54171;SDS011;40076;52.354;4.970;2023-02-10T12:57:14;20.85;;;9.50;;
54171;SDS011;40076;52.354;4.970;2023-02-10T12:59:59;19.73;;;9.50;;
54171;SDS011;40076;52.354;4.970;2023-02-10T13:04:58;22.02;;;10.68;;
54171;SDS011;40076;52.354;4.970;2023-02-10T13:12:40;22.23;;;9.75;;
54171;SDS011;40076;52.354;4.970;2023-02-10T13:15:14;19.65;;;10.10;;
54171;SDS011;40076;52.354;4.970;2023-02-10T13:17:46;18.17;;;9.63;;
54171;SDS011;40076;52.354;4.970;2023-02-10T13:22:49;22.30;;;9.95;;
54171;SDS011;40076;52.354;4.970;2023-02-10T13:25:29;19.38;;;9.13;;
54171;SDS011;40076;52.354;4.970;2023-02-10T13:31:00;19.20;;;7.93;;
54171;SDS011;40076;52.354;4.970;2023-02-10T13:33:58;22.73;;;8.00;;
54171;SDS011;40076;52.354;4.970;2023-02-10T13:36:29;24.45;;;9.73;;
54171;SDS011;40076;52.354;4.970;2023-02-10T13:39:00;20.23;;;7.00;;
54171;SDS011;40076;52.354;4.970;2023-02-10T13:41:30;18.83;;;6.55;;
54171;SDS011;40076;52.354;4.970;2023-02-10T13:44:30;17.13;;;4.75;;
54171;SDS011;40076;52.354;4.970;2023-02-10T13:49:32;13.50;;;4.53;;
54171;SDS011;40076;52.354;4.970;2023-02-10T13:52:07;16.20;;;5.30;;
54171;SDS011;40076;52.354;4.970;2023-02-10T13:54:39;12.65;;;5.15;;
54171;SDS011;40076;52.354;4.970;2023-02-10T13:57:04;12.25;;;4.78;;
54171;SDS011;40076;52.354;4.970;2023-02-10T13:59:37;15.48;;;5.40;;
54171;SDS011;40076;52.354;4.970;2023-02-10T14:02:14;15.75;;;5.85;;
54171;SDS011;40076;52.354;4.970;2023-02-10T14:04:46;16.08;;;5.82;;
54171;SDS011;40076;52.354;4.970;2023-02-10T14:10:00;15.17;;;6.37;;
54171;SDS011;40076;52.354;4.970;2023-02-10T14:12:30;15.00;;;6.25;;
54171;SDS011;40076;52.354;4.970;2023-02-10T14:15:24;18.77;;;6.72;;
54171;SDS011;40076;52.354;4.970;2023-02-10T14:17:59;16.40;;;5.50;;
54171;SDS011;40076;52.354;4.970;2023-02-10T14:20:26;14.93;;;5.82;;
54171;SDS011;40076;52.354;4.970;2023-02-10T14:22:57;19.00;;;5.50;;
54171;SDS011;40076;52.354;4.970;2023-02-10T14:25:29;11.18;;;4.93;;
54171;SDS011;40076;52.354;4.970;2023-02-10T14:27:58;20.77;;;6.47;;
54171;SDS011;40076;52.354;4.970;2023-02-10T14:30:40;16.50;;;5.80;;
54171;SDS011;40076;52.354;4.970;2023-02-10T14:33:17;16.65;;;5.55;;
54171;SDS011;40076;52.354;4.970;2023-02-10T14:35:51;16.70;;;6.85;;
54171;SDS011;40076;52.354;4.970;2023-02-10T14:38:19;14.48;;;5.97;;
54171;SDS011;40076;52.354;4.970;2023-02-10T14:40:47;16.65;;;6.45;;
54171;SDS011;40076;52.354;4.970;2023-02-10T14:43:13;15.45;;;7.30;;
54171;SDS011;40076;52.354;4.970;2023-02-10T14:45:45;18.02;;;7.20;;
54171;SDS011;40076;52.354;4.970;2023-02-10T14:48:11;20.13;;;8.30;;
54171;SDS011;40076;52.354;4.970;2023-02-10T14:50:39;14.77;;;7.10;;
54171;SDS011;40076;52.354;4.970;2023-02-10T14:53:05;15.15;;;7.22;;
54171;SDS011;40076;52.354;4.970;2023-02-10T15:00:41;16.17;;;7.88;;
54171;SDS011;40076;52.354;4.970;2023-02-10T15:03:18;17.35;;;7.95;;
54171;SDS011;40076;52.354;4.970;2023-02-10T15:05:50;14.88;;;7.15;;
54171;SDS011;40076;52.354;4.970;2023-02-10T15:08:21;16.30;;;7.22;;
54171;SDS011;40076;52.354;4.970;2023-02-10T15:10:54;15.75;;;7.38;;
54171;SDS011;40076;52.354;4.970;2023-02-10T15:13:23;14.38;;;7.65;;
54171;SDS011;40076;52.354;4.970;2023-02-10T15:15:57;15.68;;;7.50;;
54171;SDS011;40076;52.354;4.970;2023-02-10T15:18:30;21.00;;;8.07;;
54171;SDS011;40076;52.354;4.970;2023-02-10T15:21:04;15.98;;;7.45;;
54171;SDS011;40076;52.354;4.970;2023-02-10T15:23:47;16.25;;;8.32;;
54171;SDS011;40076;52.354;4.970;2023-02-10T15:26:18;15.15;;;6.95;;
54171;SDS011;40076;52.354;4.970;2023-02-10T15:28:45;16.42;;;8.10;;
54171;SDS011;40076;52.354;4.970;2023-02-10T15:33:40;14.20;;;7.30;;
54171;SDS011;40076;52.354;4.970;2023-02-10T15:39:20;13.73;;;7.10;;
54171;SDS011;40076;52.354;4.970;2023-02-10T15:46:44;13.68;;;7.18;;
54171;SDS011;40076;52.354;4.970;2023-02-10T15:49:11;17.83;;;7.88;;
54171;SDS011;40076;52.354;4.970;2023-02-10T15:51:45;14.38;;;7.68;;
54171;SDS011;40076;52.354;4.970;2023-02-10T15:54:15;15.93;;;7.78;;
54171;SDS011;40076;52.354;4.970;2023-02-10T15:56:42;20.83;;;8.32;;
54171;SDS011;40076;52.354;4.970;2023-02-10T15:59:19;16.25;;;8.00;;
54171;SDS011;40076;52.354;4.970;2023-02-10T16:01:44;21.15;;;10.02;;
54171;SDS011;40076;52.354;4.970;2023-02-10T16:04:09;16.40;;;9.30;;
54171;SDS011;40076;52.354;4.970;2023-02-10T16:06:35;20.40;;;8.40;;
54171;SDS011;40076;52.354;4.970;2023-02-10T16:09:04;17.48;;;8.35;;
54171;SDS011;40076;52.354;4.970;2023-02-10T16:11:30;22.65;;;9.18;;
54171;SDS011;40076;52.354;4.970;2023-02-10T16:13:55;18.08;;;8.00;;
54171;SDS011;40076;52.354;4.970;2023-02-10T16:16:24;18.15;;;7.95;;
54171;SDS011;40076;52.354;4.970;2023-02-10T16:18:49;19.58;;;9.15;;
54171;SDS011;40076;52.354;4.970;2023-02-10T16:21:15;17.95;;;7.60;;
54171;SDS011;40076;52.354;4.970;2023-02-10T16:23:41;20.70;;;9.07;;
54171;SDS011;40076;52.354;4.970;2023-02-10T16:26:06;16.65;;;8.95;;
54171;SDS011;40076;52.354;4.970;2023-02-10T16:28:43;20.13;;;9.18;;
54171;SDS011;40076;52.354;4.970;2023-02-10T16:31:08;18.63;;;9.25;;
54171;SDS011;40076;52.354;4.970;2023-02-10T16:33:33;20.88;;;9.65;;
54171;SDS011;40076;52.354;4.970;2023-02-10T16:36:01;17.10;;;9.93;;
54171;SDS011;40076;52.354;4.970;2023-02-10T16:38:30;25.90;;;10.55;;
54171;SDS011;40076;52.354;4.970;2023-02-10T16:40:57;22.45;;;10.48;;
54171;SDS011;40076;52.354;4.970;2023-02-10T16:43:23;20.98;;;10.48;;
54171;SDS011;40076;52.354;4.970;2023-02-10T16:45:48;20.98;;;9.93;;
54171;SDS011;40076;52.354;4.970;2023-02-10T16:48:13;23.08;;;10.88;;
54171;SDS011;40076;52.354;4.970;2023-02-10T16:50:40;26.30;;;12.88;;